sensor_id;sensor_type;location;lat;lon;timestamp;temperature;humidity
14877;DHT22;69691;48.172;17.070;2023-09-19T00:00:46;22.50;84.60
14877;DHT22;69691;48.172;17.070;2023-09-19T00:03:15;22.50;84.60
14877;DHT22;69691;48.172;17.070;2023-09-19T00:05:41;22.40;84.60
14877;DHT22;69691;48.172;17.070;2023-09-19T00:08:10;22.50;84.70
14877;DHT22;69691;48.172;17.070;2023-09-19T00:10:36;22.50;84.90
14877;DHT22;69691;48.172;17.070;2023-09-19T00:13:03;22.40;85.40
14877;DHT22;69691;48.172;17.070;2023-09-19T00:15:38;22.50;86.20
14877;DHT22;69691;48.172;17.070;2023-09-19T00:18:06;22.50;86.50
14877;DHT22;69691;48.172;17.070;2023-09-19T00:20:36;22.40;86.60
14877;DHT22;69691;48.172;17.070;2023-09-19T00:23:03;22.50;86.40
14877;DHT22;69691;48.172;17.070;2023-09-19T00:25:30;22.50;86.60
14877;DHT22;69691;48.172;17.070;2023-09-19T00:27:58;22.50;86.20
14877;DHT22;69691;48.172;17.070;2023-09-19T00:30:23;22.50;86.60
14877;DHT22;69691;48.172;17.070;2023-09-19T00:32:50;22.50;87.80
14877;DHT22;69691;48.172;17.070;2023-09-19T00:35:21;22.50;89.80
14877;DHT22;69691;48.172;17.070;2023-09-19T00:37:50;22.40;90.20
14877;DHT22;69691;48.172;17.070;2023-09-19T00:40:17;22.40;91.00
14877;DHT22;69691;48.172;17.070;2023-09-19T00:42:45;22.30;91.10
14877;DHT22;69691;48.172;17.070;2023-09-19T00:45:14;22.20;91.10
14877;DHT22;69691;48.172;17.070;2023-09-19T00:47:45;22.10;91.40
14877;DHT22;69691;48.172;17.070;2023-09-19T00:50:15;22.00;91.50
14877;DHT22;69691;48.172;17.070;2023-09-19T00:52:43;22.00;91.10
14877;DHT22;69691;48.172;17.070;2023-09-19T00:55:11;21.90;91.00
14877;DHT22;69691;48.172;17.070;2023-09-19T00:57:39;21.80;91.20
14877;DHT22;69691;48.172;17.070;2023-09-19T01:00:07;21.80;90.90
14877;DHT22;69691;48.172;17.070;2023-09-19T01:02:38;21.70;91.00
14877;DHT22;69691;48.172;17.070;2023-09-19T01:05:04;21.70;91.20
14877;DHT22;69691;48.172;17.070;2023-09-19T01:07:32;21.70;91.00
14877;DHT22;69691;48.172;17.070;2023-09-19T01:10:06;21.70;90.90
14877;DHT22;69691;48.172;17.070;2023-09-19T01:16:03;21.70;91.10
14877;DHT22;69691;48.172;17.070;2023-09-19T01:30:19;20.60;95.90
14877;DHT22;69691;48.172;17.070;2023-09-19T01:32:50;20.40;96.50
14877;DHT22;69691;48.172;17.070;2023-09-19T01:35:18;20.30;96.80
14877;DHT22;69691;48.172;17.070;2023-09-19T01:37:44;20.20;97.10
14877;DHT22;69691;48.172;17.070;2023-09-19T01:40:17;20.10;97.60
14877;DHT22;69691;48.172;17.070;2023-09-19T01:42:57;20.00;98.30
14877;DHT22;69691;48.172;17.070;2023-09-19T01:46:08;20.00;98.70
14877;DHT22;69691;48.172;17.070;2023-09-19T01:48:43;19.90;99.10
14877;DHT22;69691;48.172;17.070;2023-09-19T01:51:24;19.90;99.50
14877;DHT22;69691;48.172;17.070;2023-09-19T01:54:12;19.80;99.90
14877;DHT22;69691;48.172;17.070;2023-09-19T01:56:48;19.90;99.90
14877;DHT22;69691;48.172;17.070;2023-09-19T01:59:23;19.80;99.90
14877;DHT22;69691;48.172;17.070;2023-09-19T02:01:53;19.90;99.90
14877;DHT22;69691;48.172;17.070;2023-09-19T02:04:20;19.80;99.90
14877;DHT22;69691;48.172;17.070;2023-09-19T02:06:46;19.80;99.90
14877;DHT22;69691;48.172;17.070;2023-09-19T02:09:14;19.80;99.90
14877;DHT22;69691;48.172;17.070;2023-09-19T02:11:40;19.80;99.90
14877;DHT22;69691;48.172;17.070;2023-09-19T02:14:08;19.80;99.90
14877;DHT22;69691;48.172;17.070;2023-09-19T02:16:34;19.80;99.90
14877;DHT22;69691;48.172;17.070;2023-09-19T02:19:00;19.80;99.90
14877;DHT22;69691;48.172;17.070;2023-09-19T02:21:30;19.80;99.90
14877;DHT22;69691;48.172;17.070;2023-09-19T02:23:57;19.80;99.90
14877;DHT22;69691;48.172;17.070;2023-09-19T02:26:24;19.70;99.90
14877;DHT22;69691;48.172;17.070;2023-09-19T02:28:50;19.80;99.90
14877;DHT22;69691;48.172;17.070;2023-09-19T02:31:16;19.70;99.90
14877;DHT22;69691;48.172;17.070;2023-09-19T02:33:42;19.80;99.90
14877;DHT22;69691;48.172;17.070;2023-09-19T02:36:09;19.70;99.90
14877;DHT22;69691;48.172;17.070;2023-09-19T02:38:35;19.70;99.90
14877;DHT22;69691;48.172;17.070;2023-09-19T02:41:03;19.70;99.90
14877;DHT22;69691;48.172;17.070;2023-09-19T02:43:29;19.70;99.90
14877;DHT22;69691;48.172;17.070;2023-09-19T02:45:54;19.70;99.90
14877;DHT22;69691;48.172;17.070;2023-09-19T02:48:22;19.60;99.90
14877;DHT22;69691;48.172;17.070;2023-09-19T02:50:51;19.60;99.90
14877;DHT22;69691;48.172;17.070;2023-09-19T02:53:18;19.60;99.90
14877;DHT22;69691;48.172;17.070;2023-09-19T02:55:44;19.60;99.90
14877;DHT22;69691;48.172;17.070;2023-09-19T02:58:10;19.70;99.90
14877;DHT22;69691;48.172;17.070;2023-09-19T03:00:37;19.60;99.90
14877;DHT22;69691;48.172;17.070;2023-09-19T03:03:04;19.60;99.90
14877;DHT22;69691;48.172;17.070;2023-09-19T03:05:32;19.60;99.90
14877;DHT22;69691;48.172;17.070;2023-09-19T03:07:59;19.40;99.90
14877;DHT22;69691;48.172;17.070;2023-09-19T03:10:27;19.20;99.90
14877;DHT22;69691;48.172;17.070;2023-09-19T03:12:56;19.10;99.90
14877;DHT22;69691;48.172;17.070;2023-09-19T03:15:25;18.90;99.90
14877;DHT22;69691;48.172;17.070;2023-09-19T03:17:52;18.80;99.90
14877;DHT22;69691;48.172;17.070;2023-09-19T03:20:21;18.70;99.90
14877;DHT22;69691;48.172;17.070;2023-09-19T03:22:48;18.70;99.90
14877;DHT22;69691;48.172;17.070;2023-09-19T03:25:15;18.70;99.90
14877;DHT22;69691;48.172;17.070;2023-09-19T03:27:46;18.70;99.90
14877;DHT22;69691;48.172;17.070;2023-09-19T03:30:14;18.70;99.90
14877;DHT22;69691;48.172;17.070;2023-09-19T03:32:45;18.60;99.90
14877;DHT22;69691;48.172;17.070;2023-09-19T03:35:13;18.50;99.90
14877;DHT22;69691;48.172;17.070;2023-09-19T03:37:41;18.40;99.90
14877;DHT22;69691;48.172;17.070;2023-09-19T03:40:09;18.30;99.90
14877;DHT22;69691;48.172;17.070;2023-09-19T03:42:40;18.30;99.90
14877;DHT22;69691;48.172;17.070;2023-09-19T03:45:09;18.30;99.90
14877;DHT22;69691;48.172;17.070;2023-09-19T03:47:40;18.30;99.90
14877;DHT22;69691;48.172;17.070;2023-09-19T03:50:08;18.30;99.90
14877;DHT22;69691;48.172;17.070;2023-09-19T03:52:37;18.30;99.90
14877;DHT22;69691;48.172;17.070;2023-09-19T03:55:03;18.30;99.90
14877;DHT22;69691;48.172;17.070;2023-09-19T03:57:30;18.30;99.90
14877;DHT22;69691;48.172;17.070;2023-09-19T03:59:56;18.30;99.90
14877;DHT22;69691;48.172;17.070;2023-09-19T04:02:22;18.30;99.90
14877;DHT22;69691;48.172;17.070;2023-09-19T04:04:50;18.30;99.90
14877;DHT22;69691;48.172;17.070;2023-09-19T04:07:17;18.40;99.90
14877;DHT22;69691;48.172;17.070;2023-09-19T04:09:45;18.40;99.90
14877;DHT22;69691;48.172;17.070;2023-09-19T04:12:11;18.40;99.90
14877;DHT22;69691;48.172;17.070;2023-09-19T04:14:38;18.50;99.90
14877;DHT22;69691;48.172;17.070;2023-09-19T04:17:04;18.50;99.90
14877;DHT22;69691;48.172;17.070;2023-09-19T04:19:31;18.50;99.90
14877;DHT22;69691;48.172;17.070;2023-09-19T04:21:57;18.50;99.90
14877;DHT22;69691;48.172;17.070;2023-09-19T04:24:23;18.50;99.90
14877;DHT22;69691;48.172;17.070;2023-09-19T04:26:52;18.60;99.90
14877;DHT22;69691;48.172;17.070;2023-09-19T04:29:36;18.60;99.90
14877;DHT22;69691;48.172;17.070;2023-09-19T04:32:05;18.60;99.90
14877;DHT22;69691;48.172;17.070;2023-09-19T04:34:31;18.60;99.90
14877;DHT22;69691;48.172;17.070;2023-09-19T04:36:57;18.60;99.90
14877;DHT22;69691;48.172;17.070;2023-09-19T04:39:24;18.60;99.90
14877;DHT22;69691;48.172;17.070;2023-09-19T04:41:51;18.60;99.90
14877;DHT22;69691;48.172;17.070;2023-09-19T04:44:18;18.70;99.90
14877;DHT22;69691;48.172;17.070;2023-09-19T04:46:44;18.70;99.90
14877;DHT22;69691;48.172;17.070;2023-09-19T04:49:12;18.70;99.90
14877;DHT22;69691;48.172;17.070;2023-09-19T04:51:38;18.80;99.90
14877;DHT22;69691;48.172;17.070;2023-09-19T04:54:05;18.80;99.90
14877;DHT22;69691;48.172;17.070;2023-09-19T04:56:32;18.90;99.90
14877;DHT22;69691;48.172;17.070;2023-09-19T04:58:59;18.90;99.90
14877;DHT22;69691;48.172;17.070;2023-09-19T05:01:25;18.90;99.90
14877;DHT22;69691;48.172;17.070;2023-09-19T05:03:52;18.90;99.90
14877;DHT22;69691;48.172;17.070;2023-09-19T05:06:21;19.00;99.90
14877;DHT22;69691;48.172;17.070;2023-09-19T05:08:48;19.00;99.90
14877;DHT22;69691;48.172;17.070;2023-09-19T05:11:21;19.00;99.90
14877;DHT22;69691;48.172;17.070;2023-09-19T05:13:48;19.00;99.90
14877;DHT22;69691;48.172;17.070;2023-09-19T05:16:21;19.00;99.90
14877;DHT22;69691;48.172;17.070;2023-09-19T05:18:47;19.10;99.90
14877;DHT22;69691;48.172;17.070;2023-09-19T05:21:15;19.10;99.90
14877;DHT22;69691;48.172;17.070;2023-09-19T05:23:41;19.20;99.90
14877;DHT22;69691;48.172;17.070;2023-09-19T05:26:07;19.20;99.90
14877;DHT22;69691;48.172;17.070;2023-09-19T05:28:33;19.30;99.90
14877;DHT22;69691;48.172;17.070;2023-09-19T05:31:01;19.30;99.90
14877;DHT22;69691;48.172;17.070;2023-09-19T05:33:30;19.30;99.90
14877;DHT22;69691;48.172;17.070;2023-09-19T05:35:57;19.30;99.90
14877;DHT22;69691;48.172;17.070;2023-09-19T05:38:23;19.30;99.90
14877;DHT22;69691;48.172;17.070;2023-09-19T05:40:50;19.30;99.90
14877;DHT22;69691;48.172;17.070;2023-09-19T05:43:15;19.40;99.90
14877;DHT22;69691;48.172;17.070;2023-09-19T05:45:41;19.40;99.90
14877;DHT22;69691;48.172;17.070;2023-09-19T05:48:09;19.30;99.90
14877;DHT22;69691;48.172;17.070;2023-09-19T05:50:42;19.30;99.90
14877;DHT22;69691;48.172;17.070;2023-09-19T05:53:09;19.30;99.90
14877;DHT22;69691;48.172;17.070;2023-09-19T05:55:38;19.40;99.90
14877;DHT22;69691;48.172;17.070;2023-09-19T05:58:04;19.40;99.90
14877;DHT22;69691;48.172;17.070;2023-09-19T06:00:30;19.50;99.90
14877;DHT22;69691;48.172;17.070;2023-09-19T06:02:58;19.60;99.90
14877;DHT22;69691;48.172;17.070;2023-09-19T06:05:26;19.60;99.90
14877;DHT22;69691;48.172;17.070;2023-09-19T06:07:53;19.70;99.90
14877;DHT22;69691;48.172;17.070;2023-09-19T06:10:20;19.70;99.90
14877;DHT22;69691;48.172;17.070;2023-09-19T06:12:46;19.70;99.90
14877;DHT22;69691;48.172;17.070;2023-09-19T06:15:14;19.80;99.90
14877;DHT22;69691;48.172;17.070;2023-09-19T06:17:49;19.90;99.90
14877;DHT22;69691;48.172;17.070;2023-09-19T06:20:15;19.90;99.90
14877;DHT22;69691;48.172;17.070;2023-09-19T06:22:43;20.00;99.90
14877;DHT22;69691;48.172;17.070;2023-09-19T06:25:13;20.10;99.90
14877;DHT22;69691;48.172;17.070;2023-09-19T06:27:48;20.20;99.90
14877;DHT22;69691;48.172;17.070;2023-09-19T06:30:17;20.40;99.90
14877;DHT22;69691;48.172;17.070;2023-09-19T06:32:44;20.60;99.90
14877;DHT22;69691;48.172;17.070;2023-09-19T06:35:14;20.80;99.90
14877;DHT22;69691;48.172;17.070;2023-09-19T06:37:41;20.90;99.90
14877;DHT22;69691;48.172;17.070;2023-09-19T06:40:12;21.00;99.90
14877;DHT22;69691;48.172;17.070;2023-09-19T06:43:06;21.10;99.90
14877;DHT22;69691;48.172;17.070;2023-09-19T06:45:32;21.40;99.90
14877;DHT22;69691;48.172;17.070;2023-09-19T06:47:58;21.40;99.90
14877;DHT22;69691;48.172;17.070;2023-09-19T06:50:26;21.50;99.90
14877;DHT22;69691;48.172;17.070;2023-09-19T06:52:54;21.60;99.90
14877;DHT22;69691;48.172;17.070;2023-09-19T06:55:23;21.70;99.90
14877;DHT22;69691;48.172;17.070;2023-09-19T06:57:54;21.70;99.90
14877;DHT22;69691;48.172;17.070;2023-09-19T07:00:20;21.80;99.90
14877;DHT22;69691;48.172;17.070;2023-09-19T07:03:01;21.80;99.90
14877;DHT22;69691;48.172;17.070;2023-09-19T07:05:34;21.90;99.90
14877;DHT22;69691;48.172;17.070;2023-09-19T07:08:03;21.90;99.90
14877;DHT22;69691;48.172;17.070;2023-09-19T07:10:30;21.90;99.90
14877;DHT22;69691;48.172;17.070;2023-09-19T07:13:03;22.10;99.90
14877;DHT22;69691;48.172;17.070;2023-09-19T07:15:32;22.20;99.90
14877;DHT22;69691;48.172;17.070;2023-09-19T07:18:05;22.20;99.90
14877;DHT22;69691;48.172;17.070;2023-09-19T07:20:32;22.20;99.90
14877;DHT22;69691;48.172;17.070;2023-09-19T07:23:00;22.30;99.90
14877;DHT22;69691;48.172;17.070;2023-09-19T07:25:27;22.20;99.90
14877;DHT22;69691;48.172;17.070;2023-09-19T07:27:55;22.30;99.90
14877;DHT22;69691;48.172;17.070;2023-09-19T07:30:22;22.30;99.90
14877;DHT22;69691;48.172;17.070;2023-09-19T07:32:48;22.40;99.80
14877;DHT22;69691;48.172;17.070;2023-09-19T07:35:14;22.50;99.90
14877;DHT22;69691;48.172;17.070;2023-09-19T07:37:40;22.50;99.00
14877;DHT22;69691;48.172;17.070;2023-09-19T07:40:06;22.60;99.00
14877;DHT22;69691;48.172;17.070;2023-09-19T07:42:36;22.70;98.60
14877;DHT22;69691;48.172;17.070;2023-09-19T07:45:05;22.80;98.20
14877;DHT22;69691;48.172;17.070;2023-09-19T07:47:31;22.90;98.50
14877;DHT22;69691;48.172;17.070;2023-09-19T07:49:58;23.00;98.40
14877;DHT22;69691;48.172;17.070;2023-09-19T07:52:27;23.20;97.80
14877;DHT22;69691;48.172;17.070;2023-09-19T07:54:53;23.30;97.40
14877;DHT22;69691;48.172;17.070;2023-09-19T07:57:19;23.40;97.10
14877;DHT22;69691;48.172;17.070;2023-09-19T07:59:46;23.50;96.30
14877;DHT22;69691;48.172;17.070;2023-09-19T08:02:12;23.50;96.30
14877;DHT22;69691;48.172;17.070;2023-09-19T08:04:43;23.60;95.90
14877;DHT22;69691;48.172;17.070;2023-09-19T08:07:11;23.80;96.20
14877;DHT22;69691;48.172;17.070;2023-09-19T08:09:37;23.90;95.70
14877;DHT22;69691;48.172;17.070;2023-09-19T08:12:05;24.10;94.60
14877;DHT22;69691;48.172;17.070;2023-09-19T08:14:33;24.30;94.30
14877;DHT22;69691;48.172;17.070;2023-09-19T08:17:00;24.50;93.60
14877;DHT22;69691;48.172;17.070;2023-09-19T08:19:26;24.60;92.80
14877;DHT22;69691;48.172;17.070;2023-09-19T08:21:58;24.70;92.40
14877;DHT22;69691;48.172;17.070;2023-09-19T08:24:28;24.70;92.30
14877;DHT22;69691;48.172;17.070;2023-09-19T08:26:55;24.70;91.90
14877;DHT22;69691;48.172;17.070;2023-09-19T08:29:25;24.60;91.20
14877;DHT22;69691;48.172;17.070;2023-09-19T08:31:57;24.70;91.10
14877;DHT22;69691;48.172;17.070;2023-09-19T08:34:24;24.90;90.90
14877;DHT22;69691;48.172;17.070;2023-09-19T08:36:51;25.10;89.00
14877;DHT22;69691;48.172;17.070;2023-09-19T08:39:19;25.20;90.50
14877;DHT22;69691;48.172;17.070;2023-09-19T08:41:45;25.30;87.40
14877;DHT22;69691;48.172;17.070;2023-09-19T08:44:11;25.20;87.20
14877;DHT22;69691;48.172;17.070;2023-09-19T08:46:38;25.30;86.50
14877;DHT22;69691;48.172;17.070;2023-09-19T08:49:22;25.30;86.20
14877;DHT22;69691;48.172;17.070;2023-09-19T08:52:09;25.30;85.70
14877;DHT22;69691;48.172;17.070;2023-09-19T08:54:40;25.20;86.30
14877;DHT22;69691;48.172;17.070;2023-09-19T08:57:10;25.00;85.20
14877;DHT22;69691;48.172;17.070;2023-09-19T08:59:38;24.90;85.80
14877;DHT22;69691;48.172;17.070;2023-09-19T09:02:12;25.00;86.60
14877;DHT22;69691;48.172;17.070;2023-09-19T09:04:43;25.10;86.30
14877;DHT22;69691;48.172;17.070;2023-09-19T09:07:13;25.30;85.80
14877;DHT22;69691;48.172;17.070;2023-09-19T09:09:40;25.30;84.00
14877;DHT22;69691;48.172;17.070;2023-09-19T09:12:12;25.60;84.20
14877;DHT22;69691;48.172;17.070;2023-09-19T09:14:40;25.80;85.40
14877;DHT22;69691;48.172;17.070;2023-09-19T09:17:07;25.90;83.00
14877;DHT22;69691;48.172;17.070;2023-09-19T09:19:33;25.80;85.10
14877;DHT22;69691;48.172;17.070;2023-09-19T09:22:11;25.80;85.00
14877;DHT22;69691;48.172;17.070;2023-09-19T09:24:50;25.60;82.90
14877;DHT22;69691;48.172;17.070;2023-09-19T09:27:19;25.40;82.50
14877;DHT22;69691;48.172;17.070;2023-09-19T09:29:50;25.30;82.30
14877;DHT22;69691;48.172;17.070;2023-09-19T09:34:52;25.30;82.50
14877;DHT22;69691;48.172;17.070;2023-09-19T09:37:20;25.30;83.90
14877;DHT22;69691;48.172;17.070;2023-09-19T09:39:58;25.30;81.90
14877;DHT22;69691;48.172;17.070;2023-09-19T09:42:43;25.20;80.70
14877;DHT22;69691;48.172;17.070;2023-09-19T09:47:47;25.20;80.40
14877;DHT22;69691;48.172;17.070;2023-09-19T09:50:33;25.30;79.80
14877;DHT22;69691;48.172;17.070;2023-09-19T09:53:23;25.30;79.10
14877;DHT22;69691;48.172;17.070;2023-09-19T09:56:08;25.40;79.10
14877;DHT22;69691;48.172;17.070;2023-09-19T09:58:37;25.60;77.90
14877;DHT22;69691;48.172;17.070;2023-09-19T10:01:06;25.60;77.90
14877;DHT22;69691;48.172;17.070;2023-09-19T10:03:39;25.40;76.80
14877;DHT22;69691;48.172;17.070;2023-09-19T10:06:13;25.30;80.60
14877;DHT22;69691;48.172;17.070;2023-09-19T10:09:03;25.10;79.30
14877;DHT22;69691;48.172;17.070;2023-09-19T10:11:45;24.90;80.40
14877;DHT22;69691;48.172;17.070;2023-09-19T10:14:15;24.80;84.20
14877;DHT22;69691;48.172;17.070;2023-09-19T10:16:48;24.90;81.60
14877;DHT22;69691;48.172;17.070;2023-09-19T10:19:21;25.10;80.70
14877;DHT22;69691;48.172;17.070;2023-09-19T10:21:50;25.20;81.00
14877;DHT22;69691;48.172;17.070;2023-09-19T10:24:22;25.30;79.60
14877;DHT22;69691;48.172;17.070;2023-09-19T10:26:50;25.40;78.70
14877;DHT22;69691;48.172;17.070;2023-09-19T10:29:17;25.50;78.40
14877;DHT22;69691;48.172;17.070;2023-09-19T10:31:47;25.60;77.60
14877;DHT22;69691;48.172;17.070;2023-09-19T10:34:17;25.80;78.30
14877;DHT22;69691;48.172;17.070;2023-09-19T10:36:46;26.10;80.50
14877;DHT22;69691;48.172;17.070;2023-09-19T10:39:15;26.30;76.30
14877;DHT22;69691;48.172;17.070;2023-09-19T10:41:50;26.50;75.00
14877;DHT22;69691;48.172;17.070;2023-09-19T10:44:24;26.70;75.20
14877;DHT22;69691;48.172;17.070;2023-09-19T10:46:54;26.80;72.30
14877;DHT22;69691;48.172;17.070;2023-09-19T10:49:21;26.90;71.80
14877;DHT22;69691;48.172;17.070;2023-09-19T10:51:50;27.00;70.60
14877;DHT22;69691;48.172;17.070;2023-09-19T10:54:22;27.10;69.90
14877;DHT22;69691;48.172;17.070;2023-09-19T10:56:52;27.00;70.60
14877;DHT22;69691;48.172;17.070;2023-09-19T10:59:20;27.00;70.30
14877;DHT22;69691;48.172;17.070;2023-09-19T11:01:51;27.00;69.60
14877;DHT22;69691;48.172;17.070;2023-09-19T11:04:31;26.90;69.60
14877;DHT22;69691;48.172;17.070;2023-09-19T11:07:02;26.90;70.60
14877;DHT22;69691;48.172;17.070;2023-09-19T11:10:09;26.90;70.40
14877;DHT22;69691;48.172;17.070;2023-09-19T11:13:32;26.90;69.70
14877;DHT22;69691;48.172;17.070;2023-09-19T11:27:09;27.30;66.00
14877;DHT22;69691;48.172;17.070;2023-09-19T11:29:40;27.30;65.80
14877;DHT22;69691;48.172;17.070;2023-09-19T11:32:06;27.20;66.00
14877;DHT22;69691;48.172;17.070;2023-09-19T11:34:43;27.00;66.00
14877;DHT22;69691;48.172;17.070;2023-09-19T11:40:05;26.90;65.80
14877;DHT22;69691;48.172;17.070;2023-09-19T11:42:45;26.70;67.10
14877;DHT22;69691;48.172;17.070;2023-09-19T11:48:24;26.90;66.00
14877;DHT22;69691;48.172;17.070;2023-09-19T11:50:53;26.90;65.50
14877;DHT22;69691;48.172;17.070;2023-09-19T11:53:19;26.90;65.80
14877;DHT22;69691;48.172;17.070;2023-09-19T11:55:46;27.00;65.50
14877;DHT22;69691;48.172;17.070;2023-09-19T11:58:15;27.00;65.80
14877;DHT22;69691;48.172;17.070;2023-09-19T12:00:43;27.10;65.40
14877;DHT22;69691;48.172;17.070;2023-09-19T12:03:12;27.20;65.50
14877;DHT22;69691;48.172;17.070;2023-09-19T12:05:39;27.40;65.00
14877;DHT22;69691;48.172;17.070;2023-09-19T12:08:07;27.80;64.00
14877;DHT22;69691;48.172;17.070;2023-09-19T12:10:54;28.00;63.50
14877;DHT22;69691;48.172;17.070;2023-09-19T12:13:21;28.30;60.60
14877;DHT22;69691;48.172;17.070;2023-09-19T12:15:47;28.40;60.60
14877;DHT22;69691;48.172;17.070;2023-09-19T12:18:29;28.30;59.80
14877;DHT22;69691;48.172;17.070;2023-09-19T12:20:55;28.10;60.50
14877;DHT22;69691;48.172;17.070;2023-09-19T12:23:23;27.80;60.60
14877;DHT22;69691;48.172;17.070;2023-09-19T12:25:52;27.90;61.60
14877;DHT22;69691;48.172;17.070;2023-09-19T12:28:20;27.90;60.00
14877;DHT22;69691;48.172;17.070;2023-09-19T12:30:48;27.90;60.00
14877;DHT22;69691;48.172;17.070;2023-09-19T12:33:18;27.80;60.30
14877;DHT22;69691;48.172;17.070;2023-09-19T12:35:51;27.60;59.60
14877;DHT22;69691;48.172;17.070;2023-09-19T12:38:26;27.40;60.20
14877;DHT22;69691;48.172;17.070;2023-09-19T12:41:01;27.20;61.00
14877;DHT22;69691;48.172;17.070;2023-09-19T12:43:31;27.10;61.20
14877;DHT22;69691;48.172;17.070;2023-09-19T12:46:01;27.00;61.50
14877;DHT22;69691;48.172;17.070;2023-09-19T12:48:28;26.90;61.30
14877;DHT22;69691;48.172;17.070;2023-09-19T12:51:05;26.80;59.70
14877;DHT22;69691;48.172;17.070;2023-09-19T12:53:43;26.70;61.00
14877;DHT22;69691;48.172;17.070;2023-09-19T12:56:14;26.50;62.90
14877;DHT22;69691;48.172;17.070;2023-09-19T12:58:53;26.20;65.70
14877;DHT22;69691;48.172;17.070;2023-09-19T13:01:20;26.00;67.40
14877;DHT22;69691;48.172;17.070;2023-09-19T13:06:44;25.70;74.30
14877;DHT22;69691;48.172;17.070;2023-09-19T13:09:15;25.70;76.00
14877;DHT22;69691;48.172;17.070;2023-09-19T13:11:42;25.80;76.70
14877;DHT22;69691;48.172;17.070;2023-09-19T13:14:23;25.80;76.80
14877;DHT22;69691;48.172;17.070;2023-09-19T13:17:00;25.70;77.60
14877;DHT22;69691;48.172;17.070;2023-09-19T13:19:43;25.50;81.40
14877;DHT22;69691;48.172;17.070;2023-09-19T13:25:10;25.40;81.90
14877;DHT22;69691;48.172;17.070;2023-09-19T13:27:44;25.30;82.90
14877;DHT22;69691;48.172;17.070;2023-09-19T13:30:13;25.30;80.80
14877;DHT22;69691;48.172;17.070;2023-09-19T13:32:40;25.30;80.30
14877;DHT22;69691;48.172;17.070;2023-09-19T13:35:08;25.20;81.40
14877;DHT22;69691;48.172;17.070;2023-09-19T13:37:35;25.10;80.90
14877;DHT22;69691;48.172;17.070;2023-09-19T13:40:05;25.00;82.50
14877;DHT22;69691;48.172;17.070;2023-09-19T13:42:31;25.00;85.10
14877;DHT22;69691;48.172;17.070;2023-09-19T13:44:57;24.90;87.00
14877;DHT22;69691;48.172;17.070;2023-09-19T13:47:23;24.90;87.10
14877;DHT22;69691;48.172;17.070;2023-09-19T13:49:51;24.80;87.40
14877;DHT22;69691;48.172;17.070;2023-09-19T13:52:19;24.70;87.70
14877;DHT22;69691;48.172;17.070;2023-09-19T13:54:46;24.50;88.80
14877;DHT22;69691;48.172;17.070;2023-09-19T13:57:11;24.30;89.30
14877;DHT22;69691;48.172;17.070;2023-09-19T13:59:37;24.10;89.00
14877;DHT22;69691;48.172;17.070;2023-09-19T14:02:03;24.10;90.20
14877;DHT22;69691;48.172;17.070;2023-09-19T14:04:29;24.00;90.50
14877;DHT22;69691;48.172;17.070;2023-09-19T14:06:57;23.90;90.30
14877;DHT22;69691;48.172;17.070;2023-09-19T14:09:24;23.90;91.70
14877;DHT22;69691;48.172;17.070;2023-09-19T14:11:50;23.80;91.70
14877;DHT22;69691;48.172;17.070;2023-09-19T14:14:19;23.80;92.40
14877;DHT22;69691;48.172;17.070;2023-09-19T14:16:47;23.70;92.50
14877;DHT22;69691;48.172;17.070;2023-09-19T14:19:13;23.70;93.10
14877;DHT22;69691;48.172;17.070;2023-09-19T14:21:42;23.60;93.20
14877;DHT22;69691;48.172;17.070;2023-09-19T14:24:08;23.50;93.50
14877;DHT22;69691;48.172;17.070;2023-09-19T14:26:41;23.50;93.40
14877;DHT22;69691;48.172;17.070;2023-09-19T14:29:06;23.50;93.60
14877;DHT22;69691;48.172;17.070;2023-09-19T14:31:40;23.40;93.80
14877;DHT22;69691;48.172;17.070;2023-09-19T14:34:06;23.30;93.50
14877;DHT22;69691;48.172;17.070;2023-09-19T14:36:35;23.30;93.80
14877;DHT22;69691;48.172;17.070;2023-09-19T14:39:02;23.20;94.70
14877;DHT22;69691;48.172;17.070;2023-09-19T14:41:28;23.30;94.70
14877;DHT22;69691;48.172;17.070;2023-09-19T14:43:54;23.50;95.00
14877;DHT22;69691;48.172;17.070;2023-09-19T14:46:23;23.50;93.90
14877;DHT22;69691;48.172;17.070;2023-09-19T14:48:52;23.50;91.90
14877;DHT22;69691;48.172;17.070;2023-09-19T14:51:18;23.50;93.00
14877;DHT22;69691;48.172;17.070;2023-09-19T14:53:45;23.50;93.50
14877;DHT22;69691;48.172;17.070;2023-09-19T14:56:12;23.60;92.80
14877;DHT22;69691;48.172;17.070;2023-09-19T14:58:41;23.50;93.10
14877;DHT22;69691;48.172;17.070;2023-09-19T15:01:12;23.50;92.60
14877;DHT22;69691;48.172;17.070;2023-09-19T15:03:40;23.50;92.70
14877;DHT22;69691;48.172;17.070;2023-09-19T15:06:09;23.30;93.40
14877;DHT22;69691;48.172;17.070;2023-09-19T15:08:37;23.30;93.90
14877;DHT22;69691;48.172;17.070;2023-09-19T15:11:09;23.10;94.30
14877;DHT22;69691;48.172;17.070;2023-09-19T15:13:36;23.10;94.90
14877;DHT22;69691;48.172;17.070;2023-09-19T15:16:04;23.00;94.70
14877;DHT22;69691;48.172;17.070;2023-09-19T15:18:37;23.00;94.70
14877;DHT22;69691;48.172;17.070;2023-09-19T15:21:05;22.90;94.90
14877;DHT22;69691;48.172;17.070;2023-09-19T15:23:32;22.80;95.00
14877;DHT22;69691;48.172;17.070;2023-09-19T15:26:11;22.80;94.90
14877;DHT22;69691;48.172;17.070;2023-09-19T15:28:39;22.80;95.40
14877;DHT22;69691;48.172;17.070;2023-09-19T15:31:08;22.70;95.20
14877;DHT22;69691;48.172;17.070;2023-09-19T15:33:35;22.60;95.20
14877;DHT22;69691;48.172;17.070;2023-09-19T15:38:55;22.40;95.50
14877;DHT22;69691;48.172;17.070;2023-09-19T15:41:35;22.30;95.70
14877;DHT22;69691;48.172;17.070;2023-09-19T15:44:03;22.10;96.00
14877;DHT22;69691;48.172;17.070;2023-09-19T15:46:31;22.00;96.10
14877;DHT22;69691;48.172;17.070;2023-09-19T15:49:00;21.90;96.20
14877;DHT22;69691;48.172;17.070;2023-09-19T15:51:26;21.80;96.40
14877;DHT22;69691;48.172;17.070;2023-09-19T15:53:54;21.70;96.60
14877;DHT22;69691;48.172;17.070;2023-09-19T15:56:22;21.60;97.00
14877;DHT22;69691;48.172;17.070;2023-09-19T15:58:50;21.50;97.10
14877;DHT22;69691;48.172;17.070;2023-09-19T16:01:20;21.40;97.40
14877;DHT22;69691;48.172;17.070;2023-09-19T16:03:48;21.30;97.60
14877;DHT22;69691;48.172;17.070;2023-09-19T16:06:17;21.20;97.70
14877;DHT22;69691;48.172;17.070;2023-09-19T16:08:45;21.20;97.90
14877;DHT22;69691;48.172;17.070;2023-09-19T16:11:13;21.10;98.00
14877;DHT22;69691;48.172;17.070;2023-09-19T16:13:40;21.00;98.20
14877;DHT22;69691;48.172;17.070;2023-09-19T16:16:17;20.90;98.30